Terminal Aerodrome Forecast
Issued by NWS

Home | Current Version | Previous Version | Graphics & Text | Print | Product List | Glossary On
Versions: 1 2 3 4 5 6 7 8 9 10 11 12 13 14 15 16 17 18 19
000
FTUS43 KGRB 260637 AAA
TAFRHI
TAF AMD
KRHI 260637Z 2607/2706 28004KT P6SM SCT012 SCT040
     FM261000 29006KT 6SM BR SCT007 BKN010
     FM261200 29008KT P6SM VCSH BKN015
     FM261500 32010KT P6SM VCSH BKN025
     FM262100 32008KT P6SM SCT030 BKN090
     FM270200 30005KT P6SM SCT100=

USA.gov is the U.S. government's official web portal to all federal, state and local government web resources and services.